createdAt,value
2023-03-08T00:04:36.408Z,77.42
2023-03-08T00:09:39.215Z,77.43
2023-03-08T00:14:51.332Z,77.32
2023-03-08T00:19:53.762Z,77.31
2023-03-08T00:24:55.823Z,77.37
2023-03-08T00:29:58.419Z,77.34
2023-03-08T00:35:04.851Z,77.26
2023-03-08T00:40:07.882Z,77.06
2023-03-08T00:45:11.862Z,77.04
2023-03-08T00:50:16.376Z,76.87
2023-03-08T00:55:38.595Z,76.73
2023-03-08T01:00:40.772Z,76.50
2023-03-08T01:05:45.155Z,76.49
2023-03-08T01:10:50.073Z,76.49
2023-03-08T01:15:52.187Z,76.33
2023-03-08T01:20:59.247Z,76.29
2023-03-08T01:26:07.518Z,76.15
2023-03-08T01:31:16.368Z,76.21
2023-03-08T01:36:20.890Z,76.27
2023-03-08T01:41:26.741Z,76.22
2023-03-08T01:46:36.259Z,76.29
2023-03-08T01:51:56.850Z,76.07
2023-03-08T01:57:06.985Z,76.26
2023-03-08T02:02:09.420Z,75.97
2023-03-08T02:07:12.211Z,76.08
2023-03-08T02:12:15.303Z,76.16
2023-03-08T02:17:17.393Z,76.11
2023-03-08T02:22:20.440Z,76.14
2023-03-08T02:27:28.115Z,76.02
2023-03-08T02:32:30.219Z,76.05
2023-03-08T02:37:33.855Z,75.92
2023-03-08T02:42:37.123Z,75.92
2023-03-08T02:47:39.140Z,76.14
2023-03-08T02:52:42.051Z,75.99
2023-03-08T02:57:44.352Z,75.80
2023-03-08T03:02:46.363Z,75.81
2023-03-08T03:07:48.297Z,75.63
2023-03-08T03:12:53.209Z,75.58
2023-03-08T03:17:58.449Z,75.55
2023-03-08T03:23:00.633Z,75.49
2023-03-08T03:28:11.288Z,75.44
2023-03-08T03:33:13.604Z,75.40
2023-03-08T03:38:15.721Z,75.23
2023-03-08T03:43:19.316Z,75.34
2023-03-08T03:48:21.415Z,75.27
2023-03-08T03:53:24.296Z,75.13
2023-03-08T03:58:27.349Z,75.25
2023-03-08T04:03:29.909Z,75.03
2023-03-08T04:08:33.384Z,74.82
2023-03-08T04:13:38.332Z,74.54
2023-03-08T04:18:40.811Z,74.30
2023-03-08T04:23:43.873Z,74.31
2023-03-08T04:28:46.089Z,74.20
2023-03-08T04:33:48.490Z,74.15
2023-03-08T04:38:51.333Z,74.07
2023-03-08T04:43:56.328Z,73.91
2023-03-08T04:49:06.036Z,73.90
2023-03-08T04:54:13.161Z,73.90
2023-03-08T04:59:19.633Z,73.81
2023-03-08T05:04:21.638Z,73.79
2023-03-08T05:09:23.669Z,73.57
2023-03-08T05:14:26.546Z,73.47
2023-03-08T05:19:29.305Z,73.43
2023-03-08T05:24:32.151Z,73.33
2023-03-08T05:29:38.586Z,73.33
2023-03-08T05:34:40.939Z,73.42
2023-03-08T05:39:47.434Z,73.35
2023-03-08T05:44:55.879Z,73.25
2023-03-08T05:50:02.481Z,73.17
2023-03-08T05:55:07.644Z,73.21
2023-03-08T06:00:10.941Z,72.98
2023-03-08T06:05:21.897Z,73.23
2023-03-08T06:10:24.727Z,73.33
2023-03-08T06:15:27.187Z,73.28
2023-03-08T06:20:31.199Z,73.32
2023-03-08T06:25:33.229Z,73.05
2023-03-08T06:30:36.204Z,73.05
2023-03-08T06:35:39.000Z,72.95
2023-03-08T06:40:41.383Z,72.76
2023-03-08T06:45:44.143Z,72.59
2023-03-08T06:50:46.985Z,72.44
2023-03-08T06:55:50.468Z,72.34
2023-03-08T07:00:54.394Z,72.20
2023-03-08T07:06:00.719Z,71.59
2023-03-08T07:11:03.584Z,71.30
2023-03-08T07:16:08.316Z,71.08
2023-03-08T07:21:11.053Z,70.79
2023-03-08T07:26:12.990Z,71.00
2023-03-08T07:31:15.102Z,72.17
2023-03-08T07:36:17.031Z,72.37
2023-03-08T07:41:19.218Z,72.32
2023-03-08T07:46:22.233Z,72.72
2023-03-08T07:51:25.704Z,72.86
2023-03-08T07:56:27.905Z,72.86
2023-03-08T08:01:30.115Z,72.73
2023-03-08T08:06:32.067Z,72.42
2023-03-08T08:11:38.415Z,72.53
2023-03-08T08:16:40.546Z,72.21
2023-03-08T08:21:42.830Z,72.53
2023-03-08T08:26:45.266Z,71.81
2023-03-08T08:31:47.447Z,71.50
2023-03-08T08:36:50.130Z,71.34
2023-03-08T08:41:52.593Z,71.68
2023-03-08T08:46:54.563Z,71.93
2023-03-08T08:51:57.049Z,72.09
2023-03-08T08:57:00.051Z,71.87
2023-03-08T09:02:05.450Z,71.96
2023-03-08T09:07:07.845Z,71.74
2023-03-08T09:12:10.066Z,71.77
2023-03-08T09:17:12.093Z,71.56
2023-03-08T09:22:14.073Z,71.82
2023-03-08T09:27:16.569Z,71.97
2023-03-08T09:32:18.915Z,72.06
2023-03-08T09:37:21.278Z,72.03
2023-03-08T09:42:32.493Z,71.51
2023-03-08T09:47:57.991Z,71.44
2023-03-08T09:53:11.005Z,71.44
2023-03-08T09:58:41.182Z,71.14
2023-03-08T10:03:43.041Z,70.79
2023-03-08T10:09:20.724Z,70.35
2023-03-08T10:14:30.577Z,70.52
2023-03-08T10:19:42.285Z,70.12
2023-03-08T10:25:23.731Z,70.23
2023-03-08T10:30:32.440Z,69.69
2023-03-08T10:36:12.694Z,70.03
2023-03-08T10:41:16.675Z,69.84
2023-03-08T10:46:31.984Z,69.72
2023-03-08T10:51:34.712Z,68.98
2023-03-08T10:56:40.270Z,69.28
2023-03-08T11:01:51.377Z,68.70
2023-03-08T11:06:53.845Z,68.44
2023-03-08T11:11:57.870Z,68.18
2023-03-08T11:17:14.022Z,68.26
2023-03-08T11:22:28.472Z,67.52
2023-03-08T11:27:41.559Z,66.47
2023-03-08T11:33:22.165Z,66.33
2023-03-08T11:38:29.647Z,65.77
2023-03-08T11:44:09.497Z,64.81
2023-03-08T11:49:26.890Z,64.27
2023-03-08T11:55:06.009Z,63.39
2023-03-08T12:00:23.222Z,62.16
2023-03-08T12:05:30.132Z,61.18
2023-03-08T12:10:50.079Z,60.85
2023-03-08T12:16:22.403Z,60.53
2023-03-08T12:21:34.449Z,59.74
2023-03-08T12:26:44.639Z,59.35
2023-03-08T12:31:49.603Z,57.89
2023-03-08T12:36:51.755Z,57.66
2023-03-08T12:42:25.229Z,57.34
2023-03-08T12:47:28.124Z,57.46
2023-03-08T12:52:35.055Z,58.47
2023-03-08T12:57:46.686Z,58.84
2023-03-08T13:03:00.136Z,58.59
2023-03-08T13:08:21.319Z,58.89
2023-03-08T13:13:48.073Z,58.36
2023-03-08T13:19:17.264Z,58.62
2023-03-08T13:24:42.182Z,58.26
2023-03-08T13:29:47.052Z,58.31
2023-03-08T13:35:03.782Z,58.37
2023-03-08T13:40:18.867Z,58.36
2023-03-08T13:45:21.667Z,57.43
2023-03-08T13:50:33.981Z,57.42
2023-03-08T13:55:42.213Z,57.35
2023-03-08T14:00:44.312Z,57.33
2023-03-08T14:05:46.742Z,57.25
2023-03-08T14:11:03.106Z,57.60
2023-03-08T14:16:07.727Z,57.59
2023-03-08T14:21:15.685Z,56.91
2023-03-08T14:26:36.470Z,56.93
2023-03-08T14:31:39.702Z,57.85
2023-03-08T14:36:51.109Z,57.27
2023-03-08T14:41:54.235Z,57.20
2023-03-08T14:47:07.406Z,56.94
2023-03-08T14:52:20.723Z,57.78
2023-03-08T14:57:26.197Z,58.49
2023-03-08T15:02:36.784Z,58.32
2023-03-08T15:07:39.646Z,58.85
2023-03-08T15:12:41.861Z,58.96
2023-03-08T15:17:43.925Z,60.08
2023-03-08T15:22:49.582Z,61.26
2023-03-08T15:27:55.071Z,61.75
2023-03-08T15:32:59.508Z,61.49
2023-03-08T15:38:02.561Z,61.14
2023-03-08T15:43:08.007Z,61.26
2023-03-08T15:48:15.777Z,61.34
2023-03-08T15:53:29.590Z,61.42
2023-03-08T15:58:36.692Z,62.31
2023-03-08T16:03:38.638Z,62.67
2023-03-08T16:08:42.265Z,63.32
2023-03-08T16:13:44.585Z,63.70
2023-03-08T16:18:47.094Z,64.18
2023-03-08T16:23:48.887Z,64.73
2023-03-08T16:28:51.822Z,65.26
2023-03-08T16:33:54.139Z,65.79
2023-03-08T16:38:56.710Z,66.06
2023-03-08T16:43:59.257Z,66.95
2023-03-08T16:49:01.706Z,67.43
2023-03-08T16:54:04.825Z,67.98
2023-03-08T16:59:07.304Z,68.92
2023-03-08T17:04:11.330Z,69.63
2023-03-08T17:09:13.436Z,70.08
2023-03-08T17:14:16.418Z,70.16
2023-03-08T17:19:18.374Z,70.39
2023-03-08T17:24:21.776Z,70.55
2023-03-08T17:29:24.310Z,70.93
2023-03-08T17:34:26.243Z,71.05
2023-03-08T17:39:28.358Z,71.17
2023-03-08T17:44:30.516Z,71.53
2023-03-08T17:49:34.247Z,72.00
2023-03-08T17:54:37.057Z,71.83
2023-03-08T17:59:39.320Z,71.94
2023-03-08T18:04:47.349Z,71.96
2023-03-08T18:09:49.582Z,71.83
2023-03-08T18:14:54.781Z,72.13
2023-03-08T18:19:56.729Z,72.33
2023-03-08T18:24:59.012Z,72.44
2023-03-08T18:30:00.969Z,73.11
2023-03-08T18:35:09.246Z,73.16
2023-03-08T18:40:14.999Z,73.12
2023-03-08T18:45:18.349Z,73.15
2023-03-08T18:50:24.234Z,73.43
2023-03-08T18:55:29.369Z,73.43
2023-03-08T19:00:31.946Z,73.63
2023-03-08T19:05:35.968Z,73.85
2023-03-08T19:10:38.073Z,73.63
2023-03-08T19:15:43.797Z,73.86
2023-03-08T19:20:45.931Z,74.02
2023-03-08T19:26:17.570Z,74.23
2023-03-08T19:31:20.154Z,73.99
2023-03-08T19:36:22.674Z,74.22
2023-03-08T19:41:26.312Z,74.23
2023-03-08T19:46:28.737Z,74.20
2023-03-08T19:51:31.195Z,74.12
2023-03-08T19:56:34.202Z,74.33
2023-03-08T20:01:36.921Z,74.71
2023-03-08T20:06:45.078Z,74.71
2023-03-08T20:11:53.383Z,75.14
2023-03-08T20:16:56.269Z,75.38
2023-03-08T20:21:59.133Z,75.55
2023-03-08T20:27:01.325Z,75.58
2023-03-08T20:32:13.480Z,76.00
2023-03-08T20:37:15.534Z,76.22
2023-03-08T20:42:22.182Z,76.30
2023-03-08T20:47:24.244Z,76.19
2023-03-08T20:52:27.098Z,76.35
2023-03-08T20:57:30.426Z,76.23
2023-03-08T21:02:32.865Z,76.71
2023-03-08T21:07:35.127Z,76.45
2023-03-08T21:12:39.065Z,76.79
2023-03-08T21:17:41.818Z,76.66
2023-03-08T21:22:44.323Z,76.56
2023-03-08T21:27:46.249Z,76.59
2023-03-08T21:32:48.509Z,76.88
2023-03-08T21:37:50.936Z,76.88
2023-03-08T21:42:52.996Z,77.31
2023-03-08T21:47:57.546Z,77.32
2023-03-08T21:52:59.805Z,77.64
2023-03-08T21:58:02.275Z,77.74
2023-03-08T22:03:04.773Z,78.27
2023-03-08T22:08:08.381Z,78.48
2023-03-08T22:13:12.908Z,79.13
2023-03-08T22:18:15.193Z,79.13
2023-03-08T22:23:17.332Z,79.13
2023-03-08T22:28:21.287Z,79.12
2023-03-08T22:33:25.633Z,79.31
2023-03-08T22:38:33.699Z,79.68
2023-03-08T22:43:36.568Z,80.00
2023-03-08T22:48:39.260Z,79.96
2023-03-08T22:53:43.123Z,80.42
2023-03-08T22:58:46.578Z,80.36
2023-03-08T23:03:49.877Z,80.45
2023-03-08T23:08:55.676Z,80.40
2023-03-08T23:14:02.097Z,80.19
2023-03-08T23:19:04.812Z,80.37
2023-03-08T23:24:08.175Z,80.29
2023-03-08T23:29:10.399Z,80.46
2023-03-08T23:34:13.424Z,80.70
2023-03-08T23:39:15.469Z,80.69
2023-03-08T23:44:18.476Z,81.32
2023-03-08T23:49:21.150Z,80.87
2023-03-08T23:54:23.601Z,81.26
2023-03-08T23:59:26.268Z,81.79
